Classifiche di sempre
Migliori tempi personali validi di team tra tutti gli eventi e le stagioni. Ogni team compare una sola volta per divisione.
Cerca per nome e apri la pagina in cui è classificato questo record di divisione.
135,116 team in classifica
| Pos. | Pos. AG | Team | Nazionalità | Categoria età | TempoMiglior tempo | Distacco |
|---|---|---|---|---|---|---|
| 134401 | #16835 | Aadishesh Kshetri & Manisha KatowalIND · X 35-39 · AG #16835 | IND | X 35-39 | 2:22:28 | +93:15 |
| 134402 | #9206 | NICOLAS ALVAREZ & Mariana GonzalezMEX · X 16-24 · AG #9206 | MEX | X 16-24 | 2:22:29 | +93:16 |
| 134403 | #9207 | 继航 刘 & 佳琦 吕CHN · X 16-24 · AG #9207 | CHN | X 16-24 | 2:22:30 | +93:17 |
| 134404 | #4609 | Sergio Hernandez Ruiz & Claudia Alicia Palacios RomeroMEX · X 45-49 · AG #4609 | MEX | X 45-49 | 2:22:32 | +93:19 |
| 134405 | #3216 | Vandana Teotia & Krish IyerIND · X 50-54 · AG #3216 | IND | X 50-54 | 2:22:32 | +93:19 |
| 134406 | #20567 | Trey Guo & Jenny ShiX 25-29 · AG #20567 | -- | X 25-29 | 2:22:33 | +93:20 |
| 134407 | #3217 | Kimberly Ochoa & Josue OchoaUSA · X 50-54 · AG #3217 | USA | X 50-54 | 2:22:34 | +93:21 |
| 134408 | #20568 | 永奕 杨 & 嘉仪 段CHN · X 25-29 · AG #20568 | CHN | X 25-29 | 2:22:34 | +93:21 |
| 134409 | #46784 | Dennise Salinas & Guillermo HernándezUSA · X 30-34 · AG #46784 | USA | X 30-34 | 2:22:39 | +93:26 |
| 134410 | #4610 | Raakesh Tailor & Naina TailorGBR · X 45-49 · AG #4610 | GBR | X 45-49 | 2:22:40 | +93:27 |
| 134411 | #46785 | Qiongfang Zhang & Yanghe SongCHN · X 30-34 · AG #46785 | CHN | X 30-34 | 2:22:40 | +93:27 |
| 134412 | #3218 | Avi Sequeira & Bec CodyAUS · X 50-54 · AG #3218 | AUS | X 50-54 | 2:22:40 | +93:27 |
| 134413 | #20569 | Brendan Peter Fernandes & Rhea Mable DavidIND · X 25-29 · AG #20569 | IND | X 25-29 | 2:22:41 | +93:28 |
| 134414 | -- | 竺君 陳 & 昇鴻 李TPE · X XU29 | TPE | X XU29 | 2:22:43 | +93:30 |
| 134415 | #16836 | NIKITA PATEL & PRINCENRUTIK PATELIND · X 35-39 · AG #16836 | IND | X 35-39 | 2:22:44 | +93:31 |
| 134416 | #20570 | Marouane Essaïdi & Colomba Pichon--LengFRA · X 25-29 · AG #20570 | FRA | X 25-29 | 2:22:45 | +93:32 |
| 134417 | #18157 | 偉廷 丘 & 淑伶 陳TPE · X 40-44 · AG #18157 | TPE | X 40-44 | 2:22:51 | +93:38 |
| 134418 | #20571 | Celina Garcia & Liam LynchAUS · X 25-29 · AG #20571 | AUS | X 25-29 | 2:22:54 | +93:41 |
| 134419 | -- | Thomas Wallen & Jade ImaniGBR · X XU29 | GBR | X XU29 | 2:22:55 | +93:42 |
| 134420 | #46786 | Dylan Tran & Noell TranCAN · X 30-34 · AG #46786 | CAN | X 30-34 | 2:22:56 | +93:43 |
| 134421 | #16837 | Evin Grant & Amber GreeneUSA · X 35-39 · AG #16837 | USA | X 35-39 | 2:22:56 | +93:43 |
| 134422 | #16838 | Alexis Wee & Saravanan SubramaniamMAS · X 35-39 · AG #16838 | MAS | X 35-39 | 2:22:57 | +93:44 |
| 134423 | #16839 | Rowella Reyes & Ceasario Rex KapunanPHI · X 35-39 · AG #16839 | PHI | X 35-39 | 2:22:58 | +93:45 |
| 134424 | #16840 | Citlalli Marquez & Ramon BavinesMEX · X 35-39 · AG #16840 | MEX | X 35-39 | 2:23:00 | +93:47 |
| 134425 | #46787 | Joshua Metellus & Vianca EliasUSA · X 30-34 · AG #46787 | USA | X 30-34 | 2:23:00 | +93:47 |
Pagina 5,377 di 5,405